Candler, Florida
Current Conditions -  °F | °C
As of 6:35 AM on Friday 28 Nov 2014 (Local Time) from KOCF Reporting Station
Clear Clear  
Wind Chill: 33°   Ceiling: Unl
Heat Index: 39°   Visibility: 10mi
Dew Point: 28°   Wind: 9mph
Humidity: 65%   Direction: 10°N
Pressure: 30.33"   Gusts: NA
Location:  29.07°N, 81.97°W
Report Text: KOCF 281135Z AUTO 01008KT 10SM CLR 04/M02 A3033 RMK AO1
Loading
Personal Weather Stations






























Interactive Weather Map New forecast layout! Learn more

10-Day Weather Forecast

Advertisements
Track Severe Weather on mobile